x

Boston 16 Nm East Of Boston, Ma (44013) Wave Buoy

10:50pm - Mon 21st Aug 2017 All times are EDT. -4 hours from GMT.

  • Sig Wave height 1.0ft
  • Swell Direction
  • Peak Period 14s
  • Average Period 5s
  • Wind
    9mph, 11mph gusts
  • Sea Temp 68°f
  • Air Temp 71°f
  • Sea Pressure 1017.6mb
  • Boston 16 Nm East Of Boston, Ma
  • Boston 16 Nm East Of Boston, Ma

More Historic Weather Station data

Upgrade to MSW Pro to gain access to the past 30 days of data for over 8000 Wavebouys and Weather Stations around the globe.

Join

Comparision Forecast

View Surf forecast
   
Mon 08/21 10:50pm 1ft 14s 5s 9 11 mph 1017.6mb 68f 71f
9:50pm 1ft 5s 6s 13 13 mph 1017.6mb 69f 73f
8:50pm 1ft 6s 5s 11 11 mph 1017.9mb 69f 73f
7:50pm 1ft 6s 5s 7 7 mph 1017.7mb 69f 74f
6:50pm 1ft 9s 5s 9 9 mph 1017.8mb 69f 74f
5:50pm 1ft 6s 5s 7 7 mph 1018mb 69f 75f
4:50pm 0.7ft  -  5s 7 9 mph 1018.2mb 70f 73f
3:50pm 1ft 14s 5s 11 11 mph 1018.2mb 70f 71f
2:50pm 1ft 8s 5s 9 11 mph 1018.5mb 70f 71f
1:50pm 1ft 14s 5s 9 11 mph 1019.3mb 71f 72f
12:50pm 1ft 7s 5s 2 4 mph 1019.9mb 70f 75f
11:50am 1.3ft 6s 5s 4 4 mph 1020.4mb 69f 71f
10:50am 1.3ft 5s 5s 7 7 mph 1020.4mb 68f 69f
8:50am 1.3ft 6s 5s 9 11 mph 1021mb 67f 67f
7:50am 1ft 6s 5s 11 11 mph 1021.3mb 68f 67f
6:50am 1ft 7s 6s 9 11 mph 1021mb 68f 67f
5:50am 1ft 7s 6s 9 11 mph 1020.6mb 68f 67f
4:50am 1ft 7s 5s 11 13 mph 1020mb 68f 68f
3:50am 1ft 7s 6s 11 11 mph 1019.5mb 68f 69f
2:50am 1ft 7s 6s 7 9 mph 1019.3mb 68f 69f
1:50am 1ft 7s 5s 9 11 mph 1019.2mb 67f 69f
12:50am 1ft 7s 6s 9 9 mph 1019.1mb 67f 69f
Sun 08/20 11:50pm 1ft 7s 5s 9 11 mph 1018.5mb 67f 70f
10:50pm 1.3ft 6s 5s 7 9 mph 1018mb 67f 69f
9:50pm 1.6ft 6s 5s 4 4 mph 1017.8mb 67f 69f
8:50pm 1.6ft 6s 5s 4 7 mph 1017.1mb 67f 71f
7:50pm 1.3ft 6s 4s 9 9 mph 1016.2mb 68f 71f
6:50pm 1.3ft 6s 4s 11 13 mph 1015.6mb 67f 73f
5:50pm 1.3ft 7s 4s 11 13 mph 1015.2mb 68f 74f
4:50pm 1.3ft 7s 5s 9 11 mph 1015mb 69f 74f
3:50pm 1.3ft 6s 4s 4 4 mph 1014.8mb 70f 74f
2:50pm 1.3ft 7s 4s 4 4 mph 1014.6mb 69f 74f
1:50pm 1.3ft 7s 4s 4 4 mph 1014.5mb 67f 72f
12:50pm 1.3ft 7s 4s 4 7 mph 1014.1mb 66f 71f
10:50am 1.3ft 6s 5s 7 7 mph 1013.3mb 65f 69f
9:50am 1.6ft 6s 5s 11 13 mph 1012.8mb 64f 69f
8:50am 1.6ft 6s 5s 11 11 mph 1013mb 65f 67f
7:50am 2ft 7s 5s 11 11 mph 1012.6mb 64f 67f
6:50am 1.6ft 5s 5s 9 9 mph 1011.9mb 64f 67f
5:50am 1.3ft 7s 6s 11 13 mph 1011.3mb 65f 68f
4:50am 1ft 6s 6s 9 9 mph 1010.7mb 65f 68f
3:50am 1ft 7s 5s 2 4 mph 1010.2mb 65f 67f
2:50am 1ft 6s 5s 9 9 mph 1010.2mb 64f 68f
1:50am 1ft 6s 5s 9 9 mph 1010.1mb 66f 69f
12:50am 1ft 7s 5s 9 11 mph 1010.4mb 66f 69f
Sat 08/19 11:50pm 1.3ft 5s 5s 9 9 mph 1010.3mb 66f 69f
10:50pm 1.3ft 9s 4s 7 7 mph 1010mb 66f 67f
9:50pm 1.3ft 6s 4s 7 9 mph 1009.6mb 66f 67f
8:50pm 1.3ft 5s 4s 7 7 mph 1009.3mb 66f 66f
7:50pm 1.6ft 6s 4s 7 7 mph 1008.8mb 67f 66f
6:50pm 1.6ft 6s 4s 7 9 mph 1008.7mb 67f 67f
4:50pm 1.3ft 8s 5s 9 13 mph 1008.8mb 68f 67f
3:50pm 1.3ft 8s 4s 9 9 mph 1008.8mb 67f 66f
2:50pm 1.3ft 8s 4s 9 11 mph 1008.8mb 67f 65f
1:50pm 1.3ft 4s 4s 9 11 mph 1009.3mb 68f 65f
12:50pm 1.6ft 4s 4s 2 4 mph 1009.7mb 68f 65f
11:50am 1.6ft 4s 4s 2 2 mph 1009.8mb 67f 65f
10:50am 1.6ft 4s 4s 4 7 mph 1009.9mb 67f 64f
9:50am 2.5ft 6s 4s 9 11 mph 1009.5mb 67f 63f
8:50am 2.5ft 6s 4s 11 13 mph 1009.3mb 67f 63f
7:50am 2.5ft 3s 4s 16 20 mph 1008.5mb 67f 63f
6:50am 2ft 3s 4s 16 18 mph 1008.3mb 67f 64f
5:50am 1.6ft 7s 4s 13 13 mph 1007.7mb 67f 65f
3:50am 2ft 4s 4s 9 11 mph 1007.3mb 67f 68f
2:50am 2ft 4s 4s 9 11 mph 1007.4mb 67f 67f
1:50am 2ft 4s 4s 7 9 mph 1007.9mb 67f 68f
12:50am 2.5ft 4s 4s 4 4 mph 1008.6mb 67f 69f
Fri 08/18 11:50pm 2ft 4s 4s 11 11 mph 1009.3mb 67f 69f
10:50pm 2ft 4s 4s 11 11 mph 1009.2mb 67f 68f
9:50pm 2.5ft 4s 4s 13 13 mph 1009.2mb 66f 68f
8:50pm 2.5ft 4s 4s 16 18 mph 1009.5mb 66f 69f
7:50pm 2.5ft 4s 4s 16 18 mph 1009.6mb 67f 68f
6:50pm 2.5ft 5s 4s 13 16 mph 1009.9mb 67f 68f
5:50pm 2ft 4s 4s 13 16 mph 1010mb 67f 69f
4:50pm 1.6ft 4s 4s 13 16 mph 1010.3mb 68f 69f
3:50pm 2ft 3s 3s 13 18 mph 1010.7mb 68f 72f
2:50pm 2.5ft 4s 3s 16 16 mph 1011.2mb 67f 69f
1:50pm 2.5ft 4s 3s 18 20 mph 1011.6mb 68f 69f
12:50pm 2ft 3s 3s 16 18 mph 1012.3mb 68f 69f
11:50am 1.6ft 3s 3s 16 18 mph 1012.7mb 68f 69f
10:50am 1.3ft 3s 3s 16 18 mph 1012.9mb 68f 69f
9:50am 1ft 8s 3s 13 16 mph 1013.4mb 68f 68f
8:50am 1ft 8s 4s 9 11 mph 1014.3mb 68f 67f
7:50am 1ft 9s 5s 7 9 mph 1014.6mb 68f 67f
6:50am 1ft 10s 5s 11 11 mph 1014mb 68f 67f
5:50am 1ft 9s 5s 11 13 mph 1014.2mb 68f 67f
4:50am 1ft 10s 5s 7 9 mph 1014.3mb 68f 66f